sensor_id;sensor_type;location;lat;lon;timestamp;temperature;humidity
23991;DHT22;12205;50.600;4.608;2022-08-11T00:00:35;21.10;99.90
23991;DHT22;12205;50.600;4.608;2022-08-11T00:03:05;21.00;99.90
23991;DHT22;12205;50.600;4.608;2022-08-11T00:05:43;20.90;99.90
23991;DHT22;12205;50.600;4.608;2022-08-11T00:08:21;20.80;99.90
23991;DHT22;12205;50.600;4.608;2022-08-11T00:10:56;20.70;99.90
23991;DHT22;12205;50.600;4.608;2022-08-11T00:13:32;20.60;99.90
23991;DHT22;12205;50.600;4.608;2022-08-11T00:16:01;20.50;99.90
23991;DHT22;12205;50.600;4.608;2022-08-11T00:18:36;20.50;99.90
23991;DHT22;12205;50.600;4.608;2022-08-11T00:21:06;20.40;99.90
23991;DHT22;12205;50.600;4.608;2022-08-11T00:23:40;20.30;99.90
23991;DHT22;12205;50.600;4.608;2022-08-11T00:26:11;20.30;99.90
23991;DHT22;12205;50.600;4.608;2022-08-11T00:28:40;20.30;99.90
23991;DHT22;12205;50.600;4.608;2022-08-11T00:31:10;20.20;99.90
23991;DHT22;12205;50.600;4.608;2022-08-11T00:33:50;20.20;99.90
23991;DHT22;12205;50.600;4.608;2022-08-11T00:36:19;20.20;99.90
23991;DHT22;12205;50.600;4.608;2022-08-11T00:38:52;20.10;99.90
23991;DHT22;12205;50.600;4.608;2022-08-11T00:41:33;20.00;99.90
23991;DHT22;12205;50.600;4.608;2022-08-11T00:44:26;19.90;99.90
23991;DHT22;12205;50.600;4.608;2022-08-11T00:47:12;19.90;99.90
23991;DHT22;12205;50.600;4.608;2022-08-11T00:49:57;19.80;99.90
23991;DHT22;12205;50.600;4.608;2022-08-11T00:52:43;19.80;99.90
23991;DHT22;12205;50.600;4.608;2022-08-11T01:02:18;19.60;99.90
23991;DHT22;12205;50.600;4.608;2022-08-11T01:05:22;19.50;99.90
23991;DHT22;12205;50.600;4.608;2022-08-11T01:08:39;19.50;99.90
23991;DHT22;12205;50.600;4.608;2022-08-11T01:11:54;19.40;99.90
23991;DHT22;12205;50.600;4.608;2022-08-11T01:15:13;19.40;99.90
23991;DHT22;12205;50.600;4.608;2022-08-11T01:18:40;19.20;99.90
23991;DHT22;12205;50.600;4.608;2022-08-11T01:21:54;19.20;99.90
23991;DHT22;12205;50.600;4.608;2022-08-11T01:25:22;19.10;99.90
23991;DHT22;12205;50.600;4.608;2022-08-11T01:35:24;18.90;99.90
23991;DHT22;12205;50.600;4.608;2022-08-11T01:38:40;18.90;99.90
23991;DHT22;12205;50.600;4.608;2022-08-11T01:41:40;18.80;99.90
23991;DHT22;12205;50.600;4.608;2022-08-11T01:52:14;18.60;99.90
23991;DHT22;12205;50.600;4.608;2022-08-11T01:54:52;18.50;99.90
23991;DHT22;12205;50.600;4.608;2022-08-11T01:57:36;18.50;99.90
23991;DHT22;12205;50.600;4.608;2022-08-11T02:00:15;18.50;99.90
23991;DHT22;12205;50.600;4.608;2022-08-11T02:02:49;18.40;99.90
23991;DHT22;12205;50.600;4.608;2022-08-11T02:05:39;18.30;99.90
23991;DHT22;12205;50.600;4.608;2022-08-11T02:08:36;18.20;99.90
23991;DHT22;12205;50.600;4.608;2022-08-11T02:11:20;18.20;99.90
23991;DHT22;12205;50.600;4.608;2022-08-11T02:14:17;18.20;99.90
23991;DHT22;12205;50.600;4.608;2022-08-11T02:17:02;18.10;99.90
23991;DHT22;12205;50.600;4.608;2022-08-11T02:19:43;18.10;99.90
23991;DHT22;12205;50.600;4.608;2022-08-11T02:22:44;18.10;99.90
23991;DHT22;12205;50.600;4.608;2022-08-11T02:25:37;18.00;99.90
23991;DHT22;12205;50.600;4.608;2022-08-11T02:28:18;17.90;99.90
23991;DHT22;12205;50.600;4.608;2022-08-11T02:31:07;17.90;99.90
23991;DHT22;12205;50.600;4.608;2022-08-11T02:34:08;17.80;99.90
23991;DHT22;12205;50.600;4.608;2022-08-11T02:36:51;17.80;99.90
23991;DHT22;12205;50.600;4.608;2022-08-11T02:39:23;17.80;99.90
23991;DHT22;12205;50.600;4.608;2022-08-11T02:42:05;17.70;99.90
23991;DHT22;12205;50.600;4.608;2022-08-11T02:45:11;17.70;99.90
23991;DHT22;12205;50.600;4.608;2022-08-11T02:48:00;17.70;99.90
23991;DHT22;12205;50.600;4.608;2022-08-11T02:50:55;17.60;99.90
23991;DHT22;12205;50.600;4.608;2022-08-11T02:53:36;17.60;99.90
23991;DHT22;12205;50.600;4.608;2022-08-11T02:56:15;17.60;99.90
23991;DHT22;12205;50.600;4.608;2022-08-11T02:58:58;17.60;99.90
23991;DHT22;12205;50.600;4.608;2022-08-11T03:01:58;17.50;99.90
23991;DHT22;12205;50.600;4.608;2022-08-11T03:04:39;17.40;99.90
23991;DHT22;12205;50.600;4.608;2022-08-11T03:07:27;17.40;99.90
23991;DHT22;12205;50.600;4.608;2022-08-11T03:10:07;17.40;99.90
23991;DHT22;12205;50.600;4.608;2022-08-11T03:12:45;17.40;99.90
23991;DHT22;12205;50.600;4.608;2022-08-11T03:15:46;17.30;99.90
23991;DHT22;12205;50.600;4.608;2022-08-11T03:18:40;17.30;99.90
23991;DHT22;12205;50.600;4.608;2022-08-11T03:21:25;17.30;99.90
23991;DHT22;12205;50.600;4.608;2022-08-11T03:24:02;17.20;99.90
23991;DHT22;12205;50.600;4.608;2022-08-11T03:26:37;17.20;99.90
23991;DHT22;12205;50.600;4.608;2022-08-11T03:29:20;17.20;99.90
23991;DHT22;12205;50.600;4.608;2022-08-11T03:32:00;17.10;99.90
23991;DHT22;12205;50.600;4.608;2022-08-11T03:34:32;17.10;99.90
23991;DHT22;12205;50.600;4.608;2022-08-11T03:37:32;17.10;99.90
23991;DHT22;12205;50.600;4.608;2022-08-11T03:40:35;17.10;99.90
23991;DHT22;12205;50.600;4.608;2022-08-11T03:43:45;17.00;99.90
23991;DHT22;12205;50.600;4.608;2022-08-11T03:46:33;17.00;99.90
23991;DHT22;12205;50.600;4.608;2022-08-11T03:49:26;16.90;99.90
23991;DHT22;12205;50.600;4.608;2022-08-11T03:52:10;16.90;99.90
23991;DHT22;12205;50.600;4.608;2022-08-11T03:54:53;16.90;99.90
23991;DHT22;12205;50.600;4.608;2022-08-11T04:04:53;16.80;99.90
23991;DHT22;12205;50.600;4.608;2022-08-11T04:08:10;16.70;99.90
23991;DHT22;12205;50.600;4.608;2022-08-11T04:11:17;16.70;99.90
23991;DHT22;12205;50.600;4.608;2022-08-11T04:17:57;16.60;99.90
23991;DHT22;12205;50.600;4.608;2022-08-11T04:21:13;16.50;99.90
23991;DHT22;12205;50.600;4.608;2022-08-11T04:24:03;16.50;99.90
23991;DHT22;12205;50.600;4.608;2022-08-11T04:27:17;16.40;99.90
23991;DHT22;12205;50.600;4.608;2022-08-11T04:30:04;16.40;99.90
23991;DHT22;12205;50.600;4.608;2022-08-11T04:33:01;16.40;99.90
23991;DHT22;12205;50.600;4.608;2022-08-11T04:35:52;16.30;99.90
23991;DHT22;12205;50.600;4.608;2022-08-11T04:38:48;16.40;99.90
23991;DHT22;12205;50.600;4.608;2022-08-11T04:41:57;16.30;99.90
23991;DHT22;12205;50.600;4.608;2022-08-11T04:48:54;16.30;99.90
23991;DHT22;12205;50.600;4.608;2022-08-11T04:52:05;16.30;99.90
23991;DHT22;12205;50.600;4.608;2022-08-11T04:55:25;16.30;99.90
23991;DHT22;12205;50.600;4.608;2022-08-11T04:58:23;16.30;99.90
23991;DHT22;12205;50.600;4.608;2022-08-11T05:01:31;16.30;99.90
23991;DHT22;12205;50.600;4.608;2022-08-11T05:04:42;16.30;99.90
23991;DHT22;12205;50.600;4.608;2022-08-11T05:11:02;16.40;99.90
23991;DHT22;12205;50.600;4.608;2022-08-11T05:13:45;16.40;99.90
23991;DHT22;12205;50.600;4.608;2022-08-11T05:16:39;16.40;99.90
23991;DHT22;12205;50.600;4.608;2022-08-11T05:19:27;16.50;99.90
23991;DHT22;12205;50.600;4.608;2022-08-11T05:22:13;16.50;99.90
23991;DHT22;12205;50.600;4.608;2022-08-11T05:25:09;16.60;99.90
23991;DHT22;12205;50.600;4.608;2022-08-11T05:28:04;16.60;99.90
23991;DHT22;12205;50.600;4.608;2022-08-11T05:30:56;16.60;99.90
23991;DHT22;12205;50.600;4.608;2022-08-11T05:33:47;16.70;99.90
23991;DHT22;12205;50.600;4.608;2022-08-11T05:36:39;16.80;99.90
23991;DHT22;12205;50.600;4.608;2022-08-11T05:39:14;16.80;99.90
23991;DHT22;12205;50.600;4.608;2022-08-11T05:42:01;16.90;99.90
23991;DHT22;12205;50.600;4.608;2022-08-11T05:44:51;16.90;99.90
23991;DHT22;12205;50.600;4.608;2022-08-11T05:47:40;17.00;99.90
23991;DHT22;12205;50.600;4.608;2022-08-11T05:50:25;17.10;99.90
23991;DHT22;12205;50.600;4.608;2022-08-11T05:53:13;17.20;99.90
23991;DHT22;12205;50.600;4.608;2022-08-11T05:56:03;17.30;99.90
23991;DHT22;12205;50.600;4.608;2022-08-11T05:58:48;17.30;99.90
23991;DHT22;12205;50.600;4.608;2022-08-11T06:01:21;17.40;99.90
23991;DHT22;12205;50.600;4.608;2022-08-11T06:03:52;17.50;99.90
23991;DHT22;12205;50.600;4.608;2022-08-11T06:06:45;17.60;99.90
23991;DHT22;12205;50.600;4.608;2022-08-11T06:09:21;17.70;99.90
23991;DHT22;12205;50.600;4.608;2022-08-11T06:11:53;17.90;99.90
23991;DHT22;12205;50.600;4.608;2022-08-11T06:14:23;17.90;99.90
23991;DHT22;12205;50.600;4.608;2022-08-11T06:16:56;18.00;99.90
23991;DHT22;12205;50.600;4.608;2022-08-11T06:19:35;18.10;99.90
23991;DHT22;12205;50.600;4.608;2022-08-11T06:22:09;18.20;99.90
23991;DHT22;12205;50.600;4.608;2022-08-11T06:24:40;18.30;99.90
23991;DHT22;12205;50.600;4.608;2022-08-11T06:27:19;18.40;99.90
23991;DHT22;12205;50.600;4.608;2022-08-11T06:29:49;18.50;99.90
23991;DHT22;12205;50.600;4.608;2022-08-11T06:32:19;18.70;99.90
23991;DHT22;12205;50.600;4.608;2022-08-11T06:34:57;18.80;99.90
23991;DHT22;12205;50.600;4.608;2022-08-11T06:37:39;18.90;99.90
23991;DHT22;12205;50.600;4.608;2022-08-11T06:40:24;19.00;99.90
23991;DHT22;12205;50.600;4.608;2022-08-11T06:43:05;19.20;99.90
23991;DHT22;12205;50.600;4.608;2022-08-11T06:45:45;19.30;99.90
23991;DHT22;12205;50.600;4.608;2022-08-11T06:48:21;19.50;99.90
23991;DHT22;12205;50.600;4.608;2022-08-11T06:50:51;19.60;99.90
23991;DHT22;12205;50.600;4.608;2022-08-11T06:53:41;19.70;99.90
23991;DHT22;12205;50.600;4.608;2022-08-11T06:56:12;19.90;99.90
23991;DHT22;12205;50.600;4.608;2022-08-11T06:58:58;20.00;99.90
23991;DHT22;12205;50.600;4.608;2022-08-11T07:02:04;20.20;99.90
23991;DHT22;12205;50.600;4.608;2022-08-11T07:04:42;20.40;99.90
23991;DHT22;12205;50.600;4.608;2022-08-11T07:07:48;20.50;99.90
23991;DHT22;12205;50.600;4.608;2022-08-11T07:11:12;20.70;99.90
23991;DHT22;12205;50.600;4.608;2022-08-11T07:14:29;20.80;99.90
23991;DHT22;12205;50.600;4.608;2022-08-11T07:17:24;21.10;99.90
23991;DHT22;12205;50.600;4.608;2022-08-11T07:19:56;21.20;99.90
23991;DHT22;12205;50.600;4.608;2022-08-11T07:22:47;21.40;99.90
23991;DHT22;12205;50.600;4.608;2022-08-11T07:25:38;21.50;99.90
23991;DHT22;12205;50.600;4.608;2022-08-11T07:28:27;21.60;99.90
23991;DHT22;12205;50.600;4.608;2022-08-11T07:31:16;21.70;99.90
23991;DHT22;12205;50.600;4.608;2022-08-11T07:33:56;21.90;99.90
23991;DHT22;12205;50.600;4.608;2022-08-11T07:36:32;22.00;99.90
23991;DHT22;12205;50.600;4.608;2022-08-11T07:39:03;22.10;99.90
23991;DHT22;12205;50.600;4.608;2022-08-11T07:41:33;22.20;99.90
23991;DHT22;12205;50.600;4.608;2022-08-11T07:44:01;22.30;99.90
23991;DHT22;12205;50.600;4.608;2022-08-11T07:46:38;22.40;99.90
23991;DHT22;12205;50.600;4.608;2022-08-11T07:49:25;22.60;99.90
23991;DHT22;12205;50.600;4.608;2022-08-11T07:52:12;22.60;99.90
23991;DHT22;12205;50.600;4.608;2022-08-11T07:55:00;22.80;99.90
23991;DHT22;12205;50.600;4.608;2022-08-11T07:57:31;22.90;99.90
23991;DHT22;12205;50.600;4.608;2022-08-11T08:00:17;23.00;99.90
23991;DHT22;12205;50.600;4.608;2022-08-11T08:03:03;23.10;99.90
23991;DHT22;12205;50.600;4.608;2022-08-11T08:05:49;23.30;99.90
23991;DHT22;12205;50.600;4.608;2022-08-11T08:08:36;23.30;99.90
23991;DHT22;12205;50.600;4.608;2022-08-11T08:11:25;23.50;99.90
23991;DHT22;12205;50.600;4.608;2022-08-11T08:14:11;23.70;99.90
23991;DHT22;12205;50.600;4.608;2022-08-11T08:16:56;23.70;99.90
23991;DHT22;12205;50.600;4.608;2022-08-11T08:19:46;23.90;99.90
23991;DHT22;12205;50.600;4.608;2022-08-11T08:22:15;24.00;99.90
23991;DHT22;12205;50.600;4.608;2022-08-11T08:24:45;24.10;99.90
23991;DHT22;12205;50.600;4.608;2022-08-11T08:27:14;24.20;99.90
23991;DHT22;12205;50.600;4.608;2022-08-11T08:29:43;24.20;99.90
23991;DHT22;12205;50.600;4.608;2022-08-11T08:32:29;24.30;99.90
23991;DHT22;12205;50.600;4.608;2022-08-11T08:35:00;24.40;99.90
23991;DHT22;12205;50.600;4.608;2022-08-11T08:37:30;24.50;99.90
23991;DHT22;12205;50.600;4.608;2022-08-11T08:39:59;24.60;99.90
23991;DHT22;12205;50.600;4.608;2022-08-11T08:42:29;24.70;99.90
23991;DHT22;12205;50.600;4.608;2022-08-11T08:45:05;24.80;99.90
23991;DHT22;12205;50.600;4.608;2022-08-11T08:47:36;24.90;99.90
23991;DHT22;12205;50.600;4.608;2022-08-11T08:50:10;25.00;99.90
23991;DHT22;12205;50.600;4.608;2022-08-11T08:52:44;25.00;99.90
23991;DHT22;12205;50.600;4.608;2022-08-11T08:55:18;25.10;99.90
23991;DHT22;12205;50.600;4.608;2022-08-11T08:57:48;25.20;99.90
23991;DHT22;12205;50.600;4.608;2022-08-11T09:00:17;25.20;99.90
23991;DHT22;12205;50.600;4.608;2022-08-11T09:02:46;25.30;99.90
23991;DHT22;12205;50.600;4.608;2022-08-11T09:05:16;25.40;99.90
23991;DHT22;12205;50.600;4.608;2022-08-11T09:07:46;25.50;99.90
23991;DHT22;12205;50.600;4.608;2022-08-11T09:10:18;25.50;99.90
23991;DHT22;12205;50.600;4.608;2022-08-11T09:12:46;25.60;99.90
23991;DHT22;12205;50.600;4.608;2022-08-11T09:15:15;25.70;99.80
23991;DHT22;12205;50.600;4.608;2022-08-11T09:17:46;25.80;99.60
23991;DHT22;12205;50.600;4.608;2022-08-11T09:20:17;25.90;99.30
23991;DHT22;12205;50.600;4.608;2022-08-11T09:22:47;26.00;98.00
23991;DHT22;12205;50.600;4.608;2022-08-11T09:25:34;26.00;98.40
23991;DHT22;12205;50.600;4.608;2022-08-11T09:28:21;26.10;97.10
23991;DHT22;12205;50.600;4.608;2022-08-11T09:30:51;26.20;97.20
23991;DHT22;12205;50.600;4.608;2022-08-11T09:33:21;26.30;96.40
23991;DHT22;12205;50.600;4.608;2022-08-11T09:35:51;26.40;95.80
23991;DHT22;12205;50.600;4.608;2022-08-11T09:38:19;26.50;95.30
23991;DHT22;12205;50.600;4.608;2022-08-11T09:41:10;26.60;96.00
23991;DHT22;12205;50.600;4.608;2022-08-11T09:43:39;26.70;96.20
23991;DHT22;12205;50.600;4.608;2022-08-11T09:46:28;26.80;95.00
23991;DHT22;12205;50.600;4.608;2022-08-11T09:48:59;26.90;94.30
23991;DHT22;12205;50.600;4.608;2022-08-11T09:51:30;26.90;94.00
23991;DHT22;12205;50.600;4.608;2022-08-11T09:54:00;27.00;93.50
23991;DHT22;12205;50.600;4.608;2022-08-11T09:56:32;27.10;93.90
23991;DHT22;12205;50.600;4.608;2022-08-11T09:59:20;27.30;93.20
23991;DHT22;12205;50.600;4.608;2022-08-11T10:01:51;27.30;92.60
23991;DHT22;12205;50.600;4.608;2022-08-11T10:04:26;27.40;91.60
23991;DHT22;12205;50.600;4.608;2022-08-11T10:07:02;27.50;91.00
23991;DHT22;12205;50.600;4.608;2022-08-11T10:09:38;27.50;90.30
23991;DHT22;12205;50.600;4.608;2022-08-11T10:12:15;27.60;90.60
23991;DHT22;12205;50.600;4.608;2022-08-11T10:14:52;27.70;90.50
23991;DHT22;12205;50.600;4.608;2022-08-11T10:17:42;27.80;89.60
23991;DHT22;12205;50.600;4.608;2022-08-11T10:20:33;27.80;87.10
23991;DHT22;12205;50.600;4.608;2022-08-11T10:23:03;28.00;87.10
23991;DHT22;12205;50.600;4.608;2022-08-11T10:25:49;28.10;88.40
23991;DHT22;12205;50.600;4.608;2022-08-11T10:28:36;28.10;86.70
23991;DHT22;12205;50.600;4.608;2022-08-11T10:31:03;28.20;84.40
23991;DHT22;12205;50.600;4.608;2022-08-11T10:33:49;28.20;85.10
23991;DHT22;12205;50.600;4.608;2022-08-11T10:36:27;28.30;82.90
23991;DHT22;12205;50.600;4.608;2022-08-11T10:38:57;28.40;81.50
23991;DHT22;12205;50.600;4.608;2022-08-11T10:41:27;28.40;82.10
23991;DHT22;12205;50.600;4.608;2022-08-11T10:44:14;28.50;82.40
23991;DHT22;12205;50.600;4.608;2022-08-11T10:46:42;28.60;81.60
23991;DHT22;12205;50.600;4.608;2022-08-11T10:49:27;28.70;80.60
23991;DHT22;12205;50.600;4.608;2022-08-11T10:51:56;28.70;78.90
23991;DHT22;12205;50.600;4.608;2022-08-11T10:54:42;28.90;77.70
23991;DHT22;12205;50.600;4.608;2022-08-11T10:57:28;29.00;78.20
23991;DHT22;12205;50.600;4.608;2022-08-11T11:00:15;29.00;75.60
23991;DHT22;12205;50.600;4.608;2022-08-11T11:02:44;29.00;75.30
23991;DHT22;12205;50.600;4.608;2022-08-11T11:05:15;29.10;76.10
23991;DHT22;12205;50.600;4.608;2022-08-11T11:07:54;29.30;75.80
23991;DHT22;12205;50.600;4.608;2022-08-11T11:10:25;29.40;75.40
23991;DHT22;12205;50.600;4.608;2022-08-11T11:12:54;29.50;73.90
23991;DHT22;12205;50.600;4.608;2022-08-11T11:15:44;29.70;74.50
23991;DHT22;12205;50.600;4.608;2022-08-11T11:18:33;29.80;71.50
23991;DHT22;12205;50.600;4.608;2022-08-11T11:21:05;29.90;71.20
23991;DHT22;12205;50.600;4.608;2022-08-11T11:23:39;30.00;71.60
23991;DHT22;12205;50.600;4.608;2022-08-11T11:26:30;30.20;70.30
23991;DHT22;12205;50.600;4.608;2022-08-11T11:29:28;30.30;68.30
23991;DHT22;12205;50.600;4.608;2022-08-11T11:32:23;30.40;67.00
23991;DHT22;12205;50.600;4.608;2022-08-11T11:35:21;30.60;69.10
23991;DHT22;12205;50.600;4.608;2022-08-11T11:37:54;30.80;69.10
23991;DHT22;12205;50.600;4.608;2022-08-11T11:40:23;31.10;68.70
23991;DHT22;12205;50.600;4.608;2022-08-11T11:42:53;31.10;64.90
23991;DHT22;12205;50.600;4.608;2022-08-11T11:45:23;31.30;66.30
23991;DHT22;12205;50.600;4.608;2022-08-11T11:47:54;31.60;64.70
23991;DHT22;12205;50.600;4.608;2022-08-11T11:50:24;31.60;61.70
23991;DHT22;12205;50.600;4.608;2022-08-11T11:52:53;31.80;62.10
23991;DHT22;12205;50.600;4.608;2022-08-11T11:55:23;32.00;61.50
23991;DHT22;12205;50.600;4.608;2022-08-11T11:58:03;32.20;60.30
23991;DHT22;12205;50.600;4.608;2022-08-11T12:00:50;32.40;60.00
23991;DHT22;12205;50.600;4.608;2022-08-11T12:03:38;32.80;60.40
23991;DHT22;12205;50.600;4.608;2022-08-11T12:06:07;33.10;60.00
23991;DHT22;12205;50.600;4.608;2022-08-11T12:08:36;33.40;58.90
23991;DHT22;12205;50.600;4.608;2022-08-11T12:11:06;33.70;58.60
23991;DHT22;12205;50.600;4.608;2022-08-11T12:13:52;34.00;57.40
23991;DHT22;12205;50.600;4.608;2022-08-11T12:16:23;34.60;57.90
23991;DHT22;12205;50.600;4.608;2022-08-11T12:18:55;35.00;55.60
23991;DHT22;12205;50.600;4.608;2022-08-11T12:21:26;35.60;54.10
23991;DHT22;12205;50.600;4.608;2022-08-11T12:23:57;36.30;53.10
23991;DHT22;12205;50.600;4.608;2022-08-11T12:26:44;36.80;50.70
23991;DHT22;12205;50.600;4.608;2022-08-11T12:29:30;37.50;50.70
23991;DHT22;12205;50.600;4.608;2022-08-11T12:31:59;38.30;49.10
23991;DHT22;12205;50.600;4.608;2022-08-11T12:34:28;39.00;47.90
23991;DHT22;12205;50.600;4.608;2022-08-11T12:36:57;39.80;46.70
23991;DHT22;12205;50.600;4.608;2022-08-11T12:39:34;40.60;44.50
23991;DHT22;12205;50.600;4.608;2022-08-11T12:42:21;41.20;42.70
23991;DHT22;12205;50.600;4.608;2022-08-11T12:45:10;41.80;41.20
23991;DHT22;12205;50.600;4.608;2022-08-11T12:48:02;42.40;40.50
23991;DHT22;12205;50.600;4.608;2022-08-11T12:50:56;42.70;39.30
23991;DHT22;12205;50.600;4.608;2022-08-11T12:53:52;43.10;38.30
23991;DHT22;12205;50.600;4.608;2022-08-11T12:56:23;43.50;37.20
23991;DHT22;12205;50.600;4.608;2022-08-11T12:59:11;43.80;36.50
23991;DHT22;12205;50.600;4.608;2022-08-11T13:01:57;44.20;36.20
23991;DHT22;12205;50.600;4.608;2022-08-11T13:04:44;44.50;35.70
23991;DHT22;12205;50.600;4.608;2022-08-11T13:07:22;44.50;34.60
23991;DHT22;12205;50.600;4.608;2022-08-11T13:09:50;44.30;35.20
23991;DHT22;12205;50.600;4.608;2022-08-11T13:12:18;44.30;34.20
23991;DHT22;12205;50.600;4.608;2022-08-11T13:15:07;44.40;34.80
23991;DHT22;12205;50.600;4.608;2022-08-11T13:17:37;44.90;33.90
23991;DHT22;12205;50.600;4.608;2022-08-11T13:20:08;45.10;33.70
23991;DHT22;12205;50.600;4.608;2022-08-11T13:22:40;45.20;33.30
23991;DHT22;12205;50.600;4.608;2022-08-11T13:25:11;45.40;33.40
23991;DHT22;12205;50.600;4.608;2022-08-11T13:27:40;45.50;33.20
23991;DHT22;12205;50.600;4.608;2022-08-11T13:30:09;45.10;32.70
23991;DHT22;12205;50.600;4.608;2022-08-11T13:32:55;45.20;32.70
23991;DHT22;12205;50.600;4.608;2022-08-11T13:35:22;45.40;32.80
23991;DHT22;12205;50.600;4.608;2022-08-11T13:37:53;45.50;32.30
23991;DHT22;12205;50.600;4.608;2022-08-11T13:40:22;45.70;32.00
23991;DHT22;12205;50.600;4.608;2022-08-11T13:42:50;45.90;31.70
23991;DHT22;12205;50.600;4.608;2022-08-11T13:45:19;46.00;31.60
23991;DHT22;12205;50.600;4.608;2022-08-11T13:47:49;46.10;31.60
23991;DHT22;12205;50.600;4.608;2022-08-11T13:50:18;46.30;31.40
23991;DHT22;12205;50.600;4.608;2022-08-11T13:52:48;46.60;31.10
23991;DHT22;12205;50.600;4.608;2022-08-11T13:55:17;46.20;30.40
23991;DHT22;12205;50.600;4.608;2022-08-11T13:57:50;46.00;30.80
23991;DHT22;12205;50.600;4.608;2022-08-11T14:00:19;46.20;30.70
23991;DHT22;12205;50.600;4.608;2022-08-11T14:02:48;46.60;30.50
23991;DHT22;12205;50.600;4.608;2022-08-11T14:05:21;46.70;30.00
23991;DHT22;12205;50.600;4.608;2022-08-11T14:07:56;46.70;30.10
23991;DHT22;12205;50.600;4.608;2022-08-11T14:10:30;46.60;30.00
23991;DHT22;12205;50.600;4.608;2022-08-11T14:13:00;46.70;29.80
23991;DHT22;12205;50.600;4.608;2022-08-11T14:15:51;46.70;30.00
23991;DHT22;12205;50.600;4.608;2022-08-11T14:18:21;46.60;29.90
23991;DHT22;12205;50.600;4.608;2022-08-11T14:20:53;46.60;29.70
23991;DHT22;12205;50.600;4.608;2022-08-11T14:23:43;46.70;29.50
23991;DHT22;12205;50.600;4.608;2022-08-11T14:26:16;46.50;29.60
23991;DHT22;12205;50.600;4.608;2022-08-11T14:28:59;46.60;29.80
23991;DHT22;12205;50.600;4.608;2022-08-11T14:31:28;46.50;29.60
23991;DHT22;12205;50.600;4.608;2022-08-11T14:34:01;46.20;29.80
23991;DHT22;12205;50.600;4.608;2022-08-11T14:36:32;46.00;29.90
23991;DHT22;12205;50.600;4.608;2022-08-11T14:39:03;46.20;29.80
23991;DHT22;12205;50.600;4.608;2022-08-11T14:41:35;46.00;29.50
23991;DHT22;12205;50.600;4.608;2022-08-11T14:44:21;46.00;29.40
23991;DHT22;12205;50.600;4.608;2022-08-11T14:47:06;46.00;29.40
23991;DHT22;12205;50.600;4.608;2022-08-11T14:49:40;46.00;29.70
23991;DHT22;12205;50.600;4.608;2022-08-11T14:52:10;46.40;29.70
23991;DHT22;12205;50.600;4.608;2022-08-11T14:54:42;46.20;29.30
23991;DHT22;12205;50.600;4.608;2022-08-11T14:57:31;46.50;29.40
23991;DHT22;12205;50.600;4.608;2022-08-11T15:00:02;46.40;29.20
23991;DHT22;12205;50.600;4.608;2022-08-11T15:02:33;46.20;29.00
23991;DHT22;12205;50.600;4.608;2022-08-11T15:05:20;46.20;29.00
23991;DHT22;12205;50.600;4.608;2022-08-11T15:07:49;46.30;29.10
23991;DHT22;12205;50.600;4.608;2022-08-11T15:10:18;46.20;28.90
23991;DHT22;12205;50.600;4.608;2022-08-11T15:12:49;46.30;28.70
23991;DHT22;12205;50.600;4.608;2022-08-11T15:15:18;46.30;28.60
23991;DHT22;12205;50.600;4.608;2022-08-11T15:18:05;46.10;28.40
23991;DHT22;12205;50.600;4.608;2022-08-11T15:20:36;45.90;28.40
23991;DHT22;12205;50.600;4.608;2022-08-11T15:23:20;45.80;28.40
23991;DHT22;12205;50.600;4.608;2022-08-11T15:26:09;45.70;28.50
23991;DHT22;12205;50.600;4.608;2022-08-11T15:28:45;45.90;28.40
23991;DHT22;12205;50.600;4.608;2022-08-11T15:31:31;45.90;28.50
23991;DHT22;12205;50.600;4.608;2022-08-11T15:34:23;45.70;28.30
23991;DHT22;12205;50.600;4.608;2022-08-11T15:37:13;45.60;28.40
23991;DHT22;12205;50.600;4.608;2022-08-11T15:40:00;45.40;28.00
23991;DHT22;12205;50.600;4.608;2022-08-11T15:42:52;45.30;28.00
23991;DHT22;12205;50.600;4.608;2022-08-11T15:45:47;45.30;28.10
23991;DHT22;12205;50.600;4.608;2022-08-11T15:48:26;45.00;27.80
23991;DHT22;12205;50.600;4.608;2022-08-11T15:51:06;44.80;28.40
23991;DHT22;12205;50.600;4.608;2022-08-11T15:53:40;44.60;28.20
23991;DHT22;12205;50.600;4.608;2022-08-11T15:56:11;44.80;28.20
23991;DHT22;12205;50.600;4.608;2022-08-11T15:58:42;44.80;28.20
23991;DHT22;12205;50.600;4.608;2022-08-11T16:01:32;44.80;28.10
23991;DHT22;12205;50.600;4.608;2022-08-11T16:04:19;44.80;28.10
23991;DHT22;12205;50.600;4.608;2022-08-11T16:06:53;44.80;28.20
23991;DHT22;12205;50.600;4.608;2022-08-11T16:09:27;44.80;27.90
23991;DHT22;12205;50.600;4.608;2022-08-11T16:12:01;44.60;27.90
23991;DHT22;12205;50.600;4.608;2022-08-11T16:14:33;44.60;28.10
23991;DHT22;12205;50.600;4.608;2022-08-11T16:17:25;44.60;27.90
23991;DHT22;12205;50.600;4.608;2022-08-11T16:19:56;44.50;27.90
23991;DHT22;12205;50.600;4.608;2022-08-11T16:22:28;44.40;28.00
23991;DHT22;12205;50.600;4.608;2022-08-11T16:25:04;43.90;28.10
23991;DHT22;12205;50.600;4.608;2022-08-11T16:27:36;43.60;28.40
23991;DHT22;12205;50.600;4.608;2022-08-11T16:30:06;43.40;28.40
23991;DHT22;12205;50.600;4.608;2022-08-11T16:32:39;43.30;28.50
23991;DHT22;12205;50.600;4.608;2022-08-11T16:35:09;43.40;28.50
23991;DHT22;12205;50.600;4.608;2022-08-11T16:37:57;43.40;28.30
23991;DHT22;12205;50.600;4.608;2022-08-11T16:40:44;43.20;28.60
23991;DHT22;12205;50.600;4.608;2022-08-11T16:43:14;42.90;28.40
23991;DHT22;12205;50.600;4.608;2022-08-11T16:46:02;42.60;28.50
23991;DHT22;12205;50.600;4.608;2022-08-11T16:48:50;42.60;28.80
23991;DHT22;12205;50.600;4.608;2022-08-11T16:51:20;42.60;28.80
23991;DHT22;12205;50.600;4.608;2022-08-11T16:53:48;42.50;28.90
23991;DHT22;12205;50.600;4.608;2022-08-11T16:56:19;42.30;28.80
23991;DHT22;12205;50.600;4.608;2022-08-11T16:58:53;42.10;28.80
23991;DHT22;12205;50.600;4.608;2022-08-11T17:01:40;42.10;28.90
23991;DHT22;12205;50.600;4.608;2022-08-11T17:04:13;41.90;28.90
23991;DHT22;12205;50.600;4.608;2022-08-11T17:07:03;41.80;29.00
23991;DHT22;12205;50.600;4.608;2022-08-11T17:09:49;41.70;29.20
23991;DHT22;12205;50.600;4.608;2022-08-11T17:12:37;41.60;29.00
23991;DHT22;12205;50.600;4.608;2022-08-11T17:15:25;41.10;29.00
23991;DHT22;12205;50.600;4.608;2022-08-11T17:18:13;40.90;29.20
23991;DHT22;12205;50.600;4.608;2022-08-11T17:21:06;40.50;29.50
23991;DHT22;12205;50.600;4.608;2022-08-11T17:23:40;40.20;29.70
23991;DHT22;12205;50.600;4.608;2022-08-11T17:26:19;40.10;30.10
23991;DHT22;12205;50.600;4.608;2022-08-11T17:28:55;39.90;30.40
23991;DHT22;12205;50.600;4.608;2022-08-11T17:31:26;39.40;30.80
23991;DHT22;12205;50.600;4.608;2022-08-11T17:34:13;39.30;31.40
23991;DHT22;12205;50.600;4.608;2022-08-11T17:36:59;39.00;31.30
23991;DHT22;12205;50.600;4.608;2022-08-11T17:39:29;38.70;31.70